Time;durP1;ratioP1;P1;durP2;ratioP2;P2;SDS_P1;SDS_P2;PMS_P1;PMS_P2;Temp;Humidity;BMP_temperature;BMP_pressure;BME280_temperature;BME280_humidity;BME280_pressure;Samples;Min_cycle;Max_cycle;Signal;HPM_P1;HPM_P2
2022/05/13 00:01:41;;;;;;;16.30;6.40;;;;;;;13.37;74.63;99336.22;5130026;27;20057;-92
2022/05/13 00:04:07;;;;;;;16.52;6.80;;;;;;;13.42;74.46;99344.94;5127462;28;20035;-91
2022/05/13 00:06:33;;;;;;;14.60;6.30;;;;;;;13.20;75.12;99319.75;5128821;27;20044;-92
2022/05/13 00:08:59;;;;;;;12.40;6.57;;;;;;;13.25;74.88;99340.09;5129181;27;20042;-92
2022/05/13 00:11:25;;;;;;;11.98;6.60;;;;;;;13.17;75.26;99323.41;5128899;27;20036;-91
2022/05/13 00:13:52;;;;;;;13.88;5.88;;;;;;;13.23;75.49;99322.34;5128097;28;20545;-91
2022/05/13 00:16:18;;;;;;;11.13;5.70;;;;;;;13.20;75.04;99323.31;5126879;27;20047;-91
2022/05/13 00:18:44;;;;;;;11.70;5.78;;;;;;;13.21;75.02;99311.72;5128389;27;20392;-92
2022/05/13 00:21:10;;;;;;;13.68;5.88;;;;;;;13.19;75.66;99332.25;5128195;27;20133;-92
2022/05/13 00:23:36;;;;;;;18.30;6.60;;;;;;;13.09;76.08;99336.09;5128187;28;20036;-91
2022/05/13 00:26:02;;;;;;;15.05;5.75;;;;;;;13.15;75.74;99335.94;5129915;28;20054;-92
2022/05/13 00:28:27;;;;;;;11.65;5.78;;;;;;;13.11;75.94;99336.94;5129131;28;20047;-92
2022/05/13 00:30:55;;;;;;;14.70;5.40;;;;;;;12.95;76.71;99323.13;5128520;28;20146;-92
2022/05/13 00:33:21;;;;;;;13.10;5.60;;;;;;;13.03;76.29;99344.28;5116112;28;20031;-91
2022/05/13 00:35:48;;;;;;;11.00;5.32;;;;;;;12.89;77.21;99340.19;5115382;28;20042;-92
2022/05/13 00:38:13;;;;;;;12.35;5.80;;;;;;;12.86;77.16;99332.28;5114977;28;20104;-92
2022/05/13 00:40:41;;;;;;;9.15;5.13;;;;;;;12.86;76.91;99326.94;5112992;28;20044;-91
2022/05/13 00:43:09;;;;;;;10.82;5.72;;;;;;;12.87;76.83;99343.81;5114075;28;20489;-92
2022/05/13 00:45:36;;;;;;;17.17;5.80;;;;;;;12.82;77.38;99330.59;5113874;28;20036;-92
2022/05/13 00:48:03;;;;;;;14.05;5.80;;;;;;;12.78;77.17;99328.94;5113886;28;20058;-92
2022/05/13 00:50:33;;;;;;;16.52;5.55;;;;;;;12.81;76.98;99334.19;5114820;28;20044;-92
2022/05/13 00:53:00;;;;;;;12.07;5.80;;;;;;;12.76;77.10;99321.91;5114646;28;20047;-92
2022/05/13 00:55:30;;;;;;;19.63;6.20;;;;;;;12.71;77.00;99308.69;5113573;28;20042;-92
2022/05/13 00:57:57;;;;;;;13.50;6.18;;;;;;;12.73;77.41;99318.38;5114296;28;20051;-92
2022/05/13 01:00:23;;;;;;;14.23;5.50;;;;;;;12.73;77.62;99325.53;5113341;28;20044;-91
2022/05/13 01:02:49;;;;;;;12.25;6.25;;;;;;;12.51;78.21;99301.19;5115143;28;20447;-91
2022/05/13 01:05:18;;;;;;;15.52;6.90;;;;;;;12.51;79.15;99318.09;5114207;28;20050;-92
2022/05/13 01:07:44;;;;;;;;;;;;;;;12.49;79.83;99324.34;5115313;28;20097;-92
2022/05/13 01:10:15;;;;;;;15.23;7.07;;;;;;;12.38;79.58;99303.28;5115082;28;20651;-92
2022/05/13 01:12:44;;;;;;;13.38;6.15;;;;;;;12.39;81.05;99323.72;5114893;28;20062;-93
2022/05/13 01:15:14;;;;;;;11.25;6.20;;;;;;;12.33;80.51;99307.88;5115360;28;20035;-92
2022/05/13 01:20:46;;;;;;;13.13;6.63;;;;;;;12.32;80.35;99311.47;5122343;27;20894;-91
2022/05/13 01:23:17;;;;;;;16.27;6.18;;;;;;;12.26;80.32;99306.28;5087981;28;20401;-92
2022/05/13 01:25:45;;;;;;;16.48;6.38;;;;;;;12.49;79.37;99313.69;5087981;28;20436;-92
2022/05/13 01:28:15;;;;;;;18.67;6.40;;;;;;;12.45;79.19;99304.91;5088969;28;20036;-93
2022/05/13 01:30:45;;;;;;;16.35;7.30;;;;;;;12.43;79.07;99312.06;5088214;28;20119;-92
2022/05/13 01:33:11;;;;;;;12.65;6.13;;;;;;;12.37;79.49;99312.22;5087711;28;20059;-92
2022/05/13 01:35:39;;;;;;;15.43;6.00;;;;;;;12.18;79.95;99286.94;5089252;28;20086;-92
2022/05/13 01:38:05;;;;;;;20.23;7.03;;;;;;;12.18;80.39;99297.59;5089241;28;20033;-92
2022/05/13 01:40:33;;;;;;;19.92;6.97;;;;;;;12.19;80.86;99310.91;5089005;28;20043;-92
2022/05/13 01:42:58;;;;;;;22.83;7.03;;;;;;;12.12;81.45;99302.19;5088766;28;20060;-92
2022/05/13 01:45:24;;;;;;;19.13;7.55;;;;;;;12.09;81.92;99307.56;5088640;28;20033;-94
2022/05/13 01:47:50;;;;;;;16.95;6.72;;;;;;;11.99;82.11;99300.75;5090103;28;20028;-93
2022/05/13 01:50:16;;;;;;;17.65;6.55;;;;;;;12.03;82.58;99315.72;5090302;28;20074;-90
2022/05/13 01:52:41;;;;;;;15.02;7.57;;;;;;;11.92;83.01;99315.97;5089351;28;20050;-93
2022/05/13 01:55:08;;;;;;;14.57;7.05;;;;;;;11.75;83.41;99299.47;5089485;28;20540;-92
2022/05/13 01:57:36;;;;;;;18.88;6.72;;;;;;;11.85;83.65;99313.47;5086890;28;20608;-92
2022/05/13 02:00:03;;;;;;;17.92;6.93;;;;;;;11.83;84.08;99316.16;5088850;28;20051;-90
2022/05/13 02:02:29;;;;;;;16.20;6.88;;;;;;;11.81;82.70;99319.78;5089056;28;20044;-93
2022/05/13 02:04:55;;;;;;;13.25;6.88;;;;;;;11.80;82.64;99321.59;5088630;28;20081;-92
2022/05/13 02:07:21;;;;;;;20.13;7.20;;;;;;;11.73;83.48;99311.97;5089031;28;20032;-95
2022/05/13 02:09:47;;;;;;;16.15;7.28;;;;;;;11.58;83.66;99302.56;5089044;28;20032;-93
2022/05/13 02:12:13;;;;;;;19.90;8.68;;;;;;;11.58;83.97;99315.88;5088957;28;21421;-92
2022/05/13 02:14:40;;;;;;;20.20;7.70;;;;;;;11.56;83.53;99319.47;5088556;28;20036;-91
2022/05/13 02:17:05;;;;;;;18.17;7.07;;;;;;;11.49;83.58;99302.75;5088882;28;20044;-93
2022/05/13 02:19:31;;;;;;;19.30;8.00;;;;;;;11.53;82.94;99312.41;5088223;28;20048;-93
2022/05/13 02:21:57;;;;;;;20.15;7.18;;;;;;;11.44;83.54;99300.19;5088299;28;20123;-92
2022/05/13 02:24:23;;;;;;;18.48;7.60;;;;;;;11.39;84.14;99298.53;5088238;28;20098;-92
2022/05/13 02:26:49;;;;;;;19.42;7.40;;;;;;;11.41;84.33;99302.06;5089105;28;20409;-92
2022/05/13 02:29:14;;;;;;;18.25;8.10;;;;;;;11.39;83.87;99298.53;5089165;28;20826;-92
2022/05/13 02:31:41;;;;;;;18.08;7.72;;;;;;;11.49;84.05;99310.72;5077809;28;20124;-93
2022/05/13 02:34:07;;;;;;;18.42;7.75;;;;;;;11.37;84.13;99300.38;5074860;28;20078;-92
2022/05/13 02:36:33;;;;;;;23.10;7.57;;;;;;;11.30;84.54;99305.81;5074805;28;20040;-92
2022/05/13 02:38:59;;;;;;;17.65;7.32;;;;;;;11.35;84.55;99312.84;5073083;28;20040;-93
2022/05/13 02:41:25;;;;;;;14.38;6.90;;;;;;;11.16;84.68;99281.25;5074356;28;20044;-92
2022/05/13 02:43:53;;;;;;;18.00;7.45;;;;;;;11.32;84.92;99308.47;5074510;28;20433;-93
2022/05/13 02:46:21;;;;;;;18.58;7.47;;;;;;;11.17;85.33;99291.03;5074515;28;20050;-93
2022/05/13 02:48:48;;;;;;;18.25;8.43;;;;;;;11.17;85.12;99299.00;5075137;28;20086;-94
2022/05/13 02:51:15;;;;;;;17.20;8.23;;;;;;;11.01;85.95;99281.59;5075362;28;20043;-92
2022/05/13 02:53:42;;;;;;;18.70;7.72;;;;;;;11.18;85.28;99306.06;5074384;28;20044;-92
2022/05/13 02:56:07;;;;;;;19.15;7.97;;;;;;;11.16;85.31;99307.00;5074947;28;20600;-93
2022/05/13 02:58:33;;;;;;;21.35;7.70;;;;;;;11.18;85.97;99321.16;5074439;28;20040;-92
2022/05/13 03:00:59;;;;;;;15.00;7.65;;;;;;;10.97;86.72;99294.06;5074838;28;20424;-92
2022/05/13 03:03:25;;;;;;;19.10;7.53;;;;;;;10.97;86.31;99291.41;5074356;28;20087;-93
2022/05/13 03:05:52;;;;;;;19.40;8.57;;;;;;;10.94;86.61;99295.94;5073993;28;20037;-92
2022/05/13 03:08:19;;;;;;;25.33;8.43;;;;;;;11.06;85.49;99309.88;5074854;28;20033;-92
2022/05/13 03:10:45;;;;;;;17.23;8.13;;;;;;;10.94;86.36;99299.47;5074301;28;20060;-94
2022/05/13 03:13:10;;;;;;;18.63;7.70;;;;;;;10.77;87.23;99286.50;5074573;28;20063;-92
2022/05/13 03:15:37;;;;;;;16.17;7.95;;;;;;;10.94;87.11;99312.78;5074569;28;20071;-93
2022/05/13 03:18:03;;;;;;;18.90;7.40;;;;;;;10.77;87.32;99293.59;5074544;28;20044;-93
2022/05/13 03:20:29;;;;;;;17.15;7.50;;;;;;;10.76;88.07;99303.38;5073445;28;20040;-92
2022/05/13 03:22:56;;;;;;;15.90;7.65;;;;;;;10.85;87.82;99313.81;5075226;28;20040;-92
2022/05/13 03:25:22;;;;;;;19.90;8.07;;;;;;;10.83;87.07;99309.44;5074052;28;20059;-92
2022/05/13 03:27:48;;;;;;;19.48;7.60;;;;;;;10.73;87.48;99299.88;5074809;28;20788;-93
2022/05/13 03:30:16;;;;;;;21.58;7.82;;;;;;;10.79;87.96;99313.06;5074335;28;20093;-93
2022/05/13 03:32:42;;;;;;;22.95;7.10;;;;;;;10.79;88.50;99323.72;5073492;28;20124;-92
2022/05/13 03:35:10;;;;;;;18.38;8.10;;;;;;;10.67;89.38;99307.09;5072817;28;20116;-92
2022/05/13 03:37:36;;;;;;;20.77;7.85;;;;;;;10.75;87.52;99309.59;5072285;28;20044;-91
2022/05/13 03:40:05;;;;;;;16.33;7.00;;;;;;;10.66;88.08;99293.81;5074976;28;20094;-91
2022/05/13 03:42:31;;;;;;;19.23;7.70;;;;;;;10.66;88.12;99302.66;5073942;28;20498;-92
2022/05/13 03:44:57;;;;;;;16.48;7.18;;;;;;;10.68;88.48;99311.47;5074973;28;20044;-91
2022/05/13 03:47:23;;;;;;;18.95;7.97;;;;;;;10.73;87.83;99313.19;5074114;28;20052;-92
2022/05/13 03:49:48;;;;;;;17.10;7.15;;;;;;;10.76;88.35;99321.13;5073889;28;20040;-92
2022/05/13 03:52:15;;;;;;;20.20;7.63;;;;;;;10.77;87.54;99318.41;5074326;28;20033;-91
2022/05/13 03:54:41;;;;;;;20.05;8.13;;;;;;;10.75;88.32;99312.25;5075009;28;20061;-93
2022/05/13 03:57:08;;;;;;;18.02;7.35;;;;;;;10.73;88.11;99316.72;5075920;28;20497;-92
2022/05/13 03:59:35;;;;;;;19.40;8.00;;;;;;;10.66;88.88;99307.09;5073866;28;20131;-91
2022/05/13 04:02:01;;;;;;;15.55;7.22;;;;;;;10.77;88.81;99314.88;5073260;28;20581;-93
2022/05/13 04:04:29;;;;;;;19.17;7.63;;;;;;;10.74;89.07;99315.81;5073916;28;20131;-93
2022/05/13 04:09:55;;;;;;;17.48;7.57;;;;;;;10.74;89.21;99318.47;5104229;27;20399;-92
2022/05/13 04:18:26;;;;;;;16.95;7.22;;;;;;;10.69;89.48;99320.34;5130824;27;20371;-92
2022/05/13 04:20:51;;;;;;;18.70;8.10;;;;;;;10.66;89.74;99320.41;5131205;28;20043;-92
2022/05/13 04:23:18;;;;;;;15.45;6.82;;;;;;;10.67;90.03;99320.38;5131359;28;20045;-92
2022/05/13 04:25:44;;;;;;;16.92;7.07;;;;;;;10.77;90.48;99326.41;5131697;27;20035;-93
2022/05/13 04:28:10;;;;;;;16.08;7.45;;;;;;;10.80;89.69;99323.69;5130863;28;20040;-92
2022/05/13 04:30:36;;;;;;;20.35;7.60;;;;;;;10.87;89.31;99324.44;5131055;28;20080;-92
2022/05/13 04:33:03;;;;;;;15.23;7.28;;;;;;;10.84;90.23;99321.81;5130551;28;20035;-92
2022/05/13 04:35:30;;;;;;;18.13;6.97;;;;;;;10.93;90.31;99334.97;5130507;28;20043;-92
2022/05/13 04:37:56;;;;;;;16.27;6.70;;;;;;;10.92;89.72;99329.69;5130080;28;20413;-91
2022/05/13 04:40:22;;;;;;;16.17;6.97;;;;;;;10.95;89.87;99338.50;5130723;28;20041;-91
2022/05/13 04:42:51;;;;;;;16.92;7.40;;;;;;;10.96;89.73;99334.03;5130555;28;20134;-91
2022/05/13 04:45:23;;;;;;;13.88;6.32;;;;;;;10.91;89.56;99328.81;5130586;28;20111;-92
2022/05/13 04:50:58;;;;;;;18.55;7.93;;;;;;;11.09;89.51;99346.19;5131179;27;20384;-92
2022/05/13 04:53:26;;;;;;;19.15;7.97;;;;;;;11.17;89.37;99340.69;5131119;27;20043;-93
2022/05/13 04:55:53;;;;;;;16.63;6.80;;;;;;;11.24;89.27;99351.19;5130544;28;20043;-93
2022/05/13 04:58:20;;;;;;;14.50;6.68;;;;;;;11.36;88.92;99354.50;5130608;27;20573;-93
2022/05/13 05:00:48;;;;;;;16.77;7.20;;;;;;;11.49;89.05;99353.34;5130723;27;20043;-93
2022/05/13 05:03:15;;;;;;;15.02;7.30;;;;;;;12.05;86.59;99345.00;5130780;27;20497;-92
2022/05/13 05:05:43;;;;;;;16.02;7.53;;;;;;;12.52;82.83;99350.97;5130854;27;20039;-93
2022/05/13 05:08:10;;;;;;;15.90;7.60;;;;;;;12.92;79.12;99337.47;5129718;28;20035;-92
2022/05/13 05:10:36;;;;;;;20.35;7.45;;;;;;;13.11;77.21;99310.22;5130581;27;20425;-92
2022/05/13 05:13:03;;;;;;;15.13;6.80;;;;;;;13.61;76.25;99331.91;5129682;28;20550;-93
2022/05/13 05:15:29;;;;;;;14.68;7.40;;;;;;;13.85;72.97;99318.72;5129690;28;20074;-90
2022/05/13 05:17:56;;;;;;;16.25;6.72;;;;;;;14.22;72.52;99338.94;5129553;27;20059;-92
2022/05/13 05:20:22;;;;;;;16.67;7.25;;;;;;;14.35;71.30;99330.44;5130881;27;20058;-93
2022/05/13 05:22:48;;;;;;;19.17;6.57;;;;;;;14.35;70.63;99318.88;5128895;27;20066;-91
2022/05/13 05:25:18;;;;;;;19.02;6.75;;;;;;;14.61;69.84;99335.88;5129660;27;20051;-92
2022/05/13 05:27:44;;;;;;;15.57;6.65;;;;;;;14.84;69.38;99349.34;5129236;27;20047;-91
2022/05/13 05:30:11;;;;;;;16.73;7.20;;;;;;;14.75;68.76;99312.19;5129293;27;20035;-92
2022/05/13 05:32:38;;;;;;;16.30;6.65;;;;;;;15.01;68.40;99330.00;5128992;28;20357;-92
2022/05/13 05:35:05;;;;;;;18.77;6.57;;;;;;;15.15;68.22;99322.31;5129633;27;20045;-93
2022/05/13 05:37:30;;;;;;;12.45;6.07;;;;;;;15.33;67.46;99334.19;5128875;27;20034;-92
2022/05/13 05:39:56;;;;;;;14.40;7.00;;;;;;;15.38;66.64;99329.50;5128057;27;20491;-90
2022/05/13 05:42:23;;;;;;;16.40;6.22;;;;;;;15.64;66.05;99319.59;5127349;27;20100;-91
2022/05/13 05:44:49;;;;;;;17.25;6.63;;;;;;;15.87;65.72;99325.88;5128498;27;20246;-93
2022/05/13 05:47:16;;;;;;;17.88;6.50;;;;;;;16.21;64.76;99334.31;5128821;27;20037;-93
2022/05/13 05:49:42;;;;;;;14.38;6.18;;;;;;;16.40;63.29;99333.56;5127990;28;20071;-93
2022/05/13 05:52:09;;;;;;;18.48;6.32;;;;;;;16.48;62.62;99333.22;5129214;27;20492;-92
2022/05/13 05:57:35;;;;;;;11.10;5.75;;;;;;;16.63;61.84;99327.19;5130688;27;20379;-92
2022/05/13 06:00:04;;;;;;;20.08;6.07;;;;;;;16.72;61.68;99337.56;5137938;27;20409;-93
2022/05/13 06:02:30;;;;;;;11.90;5.72;;;;;;;16.72;61.89;99320.56;5134475;27;20457;-92
2022/05/13 06:04:55;;;;;;;14.18;6.20;;;;;;;16.66;61.59;99337.81;5140066;27;20117;-92
2022/05/13 06:07:22;;;;;;;17.55;5.95;;;;;;;16.62;62.13;99328.16;5133643;27;20126;-94
2022/05/13 06:09:48;;;;;;;14.23;6.18;;;;;;;16.84;61.85;99333.50;5136709;27;20035;-94
2022/05/13 06:12:14;;;;;;;13.38;6.63;;;;;;;16.92;60.60;99323.28;5137016;27;20054;-92
2022/05/13 06:14:41;;;;;;;14.60;5.53;;;;;;;17.11;59.35;99327.84;5136965;27;20040;-91
2022/05/13 06:17:08;;;;;;;15.95;5.97;;;;;;;17.20;59.36;99312.19;5133585;27;20035;-94
2022/05/13 06:19:34;;;;;;;11.43;5.75;;;;;;;17.51;59.21;99326.03;5135310;27;20130;-90
2022/05/13 06:21:59;;;;;;;15.05;6.25;;;;;;;17.64;58.83;99327.19;5132717;27;20122;-91
2022/05/13 06:24:25;;;;;;;19.08;6.10;;;;;;;17.65;58.33;99310.09;5132064;27;20503;-91
2022/05/13 06:26:51;;;;;;;16.92;5.70;;;;;;;17.77;54.92;99298.75;5136479;27;20046;-92
2022/05/13 06:29:19;;;;;;;13.18;6.05;;;;;;;17.91;53.09;99324.16;5135122;27;20031;-91
2022/05/13 06:31:47;;;;;;;12.70;5.90;;;;;;;17.92;52.90;99325.91;5131785;27;20043;-93
2022/05/13 06:34:14;;;;;;;17.25;6.03;;;;;;;17.85;54.64;99331.59;5131903;27;20385;-91
2022/05/13 06:36:40;;;;;;;14.98;6.13;;;;;;;17.91;55.73;99330.41;5131911;27;20046;-93
2022/05/13 06:39:07;;;;;;;13.40;5.45;;;;;;;17.99;53.65;99330.06;5133745;27;20114;-92
2022/05/13 06:41:37;;;;;;;13.40;5.35;;;;;;;18.22;52.28;99310.09;5134457;27;20038;-91
2022/05/13 06:44:03;;;;;;;10.73;5.75;;;;;;;18.54;53.03;99321.03;5134746;27;20449;-92
2022/05/13 06:46:29;;;;;;;10.82;5.53;;;;;;;18.57;51.85;99321.78;5137368;27;20066;-92
2022/05/13 06:48:58;;;;;;;15.52;5.30;;;;;;;18.52;52.50;99318.44;5138714;27;20059;-94
2022/05/13 06:51:23;;;;;;;17.90;7.15;;;;;;;18.57;52.91;99327.16;5133756;27;20035;-94
2022/05/13 06:53:49;;;;;;;18.60;7.25;;;;;;;18.65;52.85;99321.34;5132488;27;20038;-91
2022/05/13 06:56:15;;;;;;;12.80;5.80;;;;;;;18.81;51.77;99325.06;5130876;27;20066;-93
2022/05/13 06:58:41;;;;;;;18.63;5.90;;;;;;;18.88;51.53;99328.28;5134833;27;20044;-91
2022/05/13 07:01:07;;;;;;;11.32;5.93;;;;;;;18.89;50.51;99316.59;5134676;27;20043;-92
2022/05/13 07:03:33;;;;;;;17.38;6.00;;;;;;;19.07;50.46;99331.75;5138715;27;20027;-94
2022/05/13 07:06:00;;;;;;;19.02;6.25;;;;;;;19.10;49.53;99322.63;5131779;27;20042;-92
2022/05/13 07:08:26;;;;;;;48.85;14.75;;;;;;;19.07;49.90;99307.50;5125091;27;20031;-93
2022/05/13 07:10:51;;;;;;;12.57;6.40;;;;;;;19.27;48.77;99308.25;5118660;27;20081;-92
2022/05/13 07:13:18;;;;;;;14.10;5.93;;;;;;;19.34;49.63;99330.38;5116091;28;20044;-92
2022/05/13 07:15:45;;;;;;;13.23;5.50;;;;;;;19.42;49.20;99329.00;5121089;27;20036;-91
2022/05/13 07:18:11;;;;;;;15.60;5.70;;;;;;;19.50;49.76;99340.25;5115908;27;20538;-93
2022/05/13 07:20:37;;;;;;;13.05;6.03;;;;;;;19.56;49.71;99332.75;5123566;27;20046;-93
2022/05/13 07:23:04;;;;;;;15.27;6.75;;;;;;;19.62;49.73;99327.03;5119429;27;20119;-92
2022/05/13 07:25:31;;;;;;;20.35;7.47;;;;;;;19.74;49.61;99323.69;5116071;27;20101;-92
2022/05/13 07:27:57;;;;;;;18.42;6.18;;;;;;;19.88;48.56;99331.88;5127829;27;20118;-92
2022/05/13 07:30:23;;;;;;;17.40;6.57;;;;;;;19.88;48.15;99318.38;5118697;27;20059;-92
2022/05/13 07:32:49;;;;;;;11.10;5.20;;;;;;;19.98;47.56;99315.19;5118115;27;20315;-92
2022/05/13 07:35:15;;;;;;;15.32;5.53;;;;;;;19.75;47.75;99320.03;5119488;27;20043;-93
2022/05/13 07:37:41;;;;;;;17.67;5.95;;;;;;;19.81;49.08;99308.91;5121135;27;20092;-92
2022/05/13 07:43:09;;;;;;;15.93;6.63;;;;;;;20.25;48.52;99315.41;5150928;27;20377;-88
2022/05/13 07:45:35;;;;;;;11.77;5.78;;;;;;;20.42;47.57;99315.28;5151339;27;20038;-92
2022/05/13 07:48:02;;;;;;;12.60;6.30;;;;;;;20.41;47.80;99307.28;5151567;27;20043;-90
2022/05/13 07:50:27;;;;;;;17.90;5.72;;;;;;;20.47;49.11;99306.91;5150158;27;20039;-90
2022/05/13 07:52:53;;;;;;;18.90;6.10;;;;;;;20.45;48.81;99309.72;5151016;27;20693;-93
2022/05/13 07:55:19;;;;;;;15.40;5.97;;;;;;;20.62;47.90;99303.31;5153490;27;20045;-91
2022/05/13 07:57:46;;;;;;;12.10;5.20;;;;;;;20.69;47.09;99288.50;5152527;27;20122;-92
2022/05/13 08:03:18;;;;;;;16.75;5.57;;;;;;;20.71;46.23;99310.91;5109964;27;20392;-90
2022/05/13 08:05:46;;;;;;;16.67;5.80;;;;;;;20.96;46.73;99320.22;5096588;28;20059;-91
2022/05/13 08:08:15;;;;;;;11.25;5.68;;;;;;;21.25;46.21;99309.44;5093600;28;20096;-90
2022/05/13 08:10:46;;;;;;;10.43;4.32;;;;;;;21.42;43.75;99311.97;5100287;28;20060;-91
2022/05/13 08:13:12;;;;;;;10.23;4.65;;;;;;;21.63;43.32;99309.75;5096812;28;20109;-91
2022/05/13 08:15:38;;;;;;;9.90;5.18;;;;;;;21.65;43.39;99294.28;5096951;28;20036;-89
2022/05/13 08:18:04;;;;;;;10.52;4.20;;;;;;;21.66;41.28;99293.28;5099290;28;20404;-91
2022/05/13 08:20:32;;;;;;;11.30;4.32;;;;;;;21.43;40.24;99308.31;5095335;28;20056;-92
2022/05/13 08:22:57;;;;;;;9.52;4.05;;;;;;;21.34;42.23;99306.16;5095707;28;20032;-92
2022/05/13 08:25:24;;;;;;;16.98;4.45;;;;;;;21.52;41.53;99305.03;5097455;28;20394;-92
2022/05/13 08:27:50;;;;;;;9.48;4.03;;;;;;;21.41;42.53;99304.84;5089937;28;20040;-91
2022/05/13 08:30:16;;;;;;;11.85;3.95;;;;;;;21.54;41.74;99284.16;5094244;28;20044;-91
2022/05/13 08:32:42;;;;;;;14.82;4.63;;;;;;;21.85;41.04;99303.81;5093733;28;20381;-92
2022/05/13 08:35:09;;;;;;;12.07;4.40;;;;;;;21.99;41.61;99297.50;5095607;28;20135;-91
2022/05/13 08:37:41;;;;;;;11.07;4.35;;;;;;;22.03;41.20;99309.84;5097353;28;20031;-91
2022/05/13 08:40:12;;;;;;;12.32;4.50;;;;;;;21.60;42.22;99299.13;5097434;28;20494;-91
2022/05/13 08:42:44;;;;;;;9.18;3.97;;;;;;;21.94;40.83;99296.94;5095140;28;20067;-91
2022/05/13 08:45:10;;;;;;;11.77;4.45;;;;;;;22.01;41.01;99290.16;5100198;28;20041;-95
2022/05/13 08:47:46;;;;;;;12.80;4.68;;;;;;;22.48;40.83;99291.53;5096020;28;20040;-91
2022/05/13 08:50:20;;;;;;;12.35;4.43;;;;;;;22.81;40.51;99292.91;5096520;28;20524;-92
2022/05/13 08:56:03;;;;;;;12.07;4.43;;;;;;;22.46;39.61;99277.22;5089221;27;20386;-90
2022/05/13 08:58:35;;;;;;;12.32;4.25;;;;;;;22.74;39.42;99287.03;5089862;28;20505;-89
2022/05/13 09:01:04;;;;;;;9.60;3.60;;;;;;;23.03;39.16;99270.63;5089656;28;20048;-90
2022/05/13 09:03:38;;;;;;;10.73;4.10;;;;;;;23.24;38.33;99267.38;5090302;28;20040;-91
2022/05/13 09:06:11;;;;;;;12.52;3.38;;;;;;;23.31;37.61;99263.22;5090871;28;20398;-93
2022/05/13 09:08:37;;;;;;;7.78;3.22;;;;;;;23.60;36.75;99279.28;5090498;28;20037;-91
2022/05/13 09:11:15;;;;;;;12.60;3.55;;;;;;;23.43;36.93;99262.34;5090066;28;20040;-92
2022/05/13 09:13:49;;;;;;;12.25;3.58;;;;;;;23.65;36.74;99258.06;5090112;28;20032;-92
2022/05/13 09:16:25;;;;;;;15.05;3.60;;;;;;;23.56;36.11;99249.63;5088629;28;20039;-91
2022/05/13 09:18:58;;;;;;;12.80;4.18;;;;;;;23.73;37.10;99250.25;5089346;28;20040;-92
2022/05/13 09:21:23;;;;;;;12.18;3.70;;;;;;;24.01;36.99;99262.66;5088867;28;20043;-92
2022/05/13 09:23:49;;;;;;;10.95;4.00;;;;;;;23.31;35.46;99265.94;5089346;28;20119;-93
2022/05/13 09:26:19;;;;;;;10.63;3.78;;;;;;;23.65;35.50;99260.78;5089318;28;20522;-91
2022/05/13 09:29:07;;;;;;;10.88;3.90;;;;;;;23.87;35.91;99257.38;5086012;28;20045;-91
2022/05/13 09:31:35;;;;;;;10.85;3.40;;;;;;;23.86;36.03;99244.81;5080642;28;20068;-91
2022/05/13 09:34:01;;;;;;;14.20;5.03;;;;;;;23.93;34.42;99227.91;5090961;28;20044;-90
2022/05/13 09:36:33;;;;;;;14.02;3.63;;;;;;;24.07;35.19;99240.47;5089520;28;20036;-90
2022/05/13 09:39:10;;;;;;;7.60;3.47;;;;;;;24.26;35.27;99245.38;5089412;28;20040;-91
2022/05/13 09:41:37;;;;;;;10.95;3.67;;;;;;;24.40;35.27;99245.19;5087871;28;20043;-92
2022/05/13 09:44:06;;;;;;;8.38;3.50;;;;;;;24.46;34.58;99238.41;5087440;28;20123;-90
2022/05/13 09:46:33;;;;;;;;;;;;;;;24.75;34.21;99230.75;5088627;28;20074;-91
2022/05/13 09:49:02;;;;;;;8.10;2.85;;;;;;;24.38;33.60;99219.97;5089208;28;19921;-91
2022/05/13 09:51:35;;;;;;;6.82;3.10;;;;;;;23.90;31.88;99227.28;5088754;28;20485;-92
2022/05/13 09:54:07;;;;;;;12.63;2.95;;;;;;;23.66;32.67;99233.53;5088571;28;20490;-92
2022/05/13 09:56:40;;;;;;;12.35;3.47;;;;;;;23.55;31.17;99231.63;5089649;28;20127;-94
2022/05/13 09:59:14;;;;;;;7.05;3.17;;;;;;;23.57;33.12;99209.75;5087110;28;20044;-91
2022/05/13 10:01:40;;;;;;;7.18;3.28;;;;;;;23.62;33.79;99228.44;5089672;28;20441;-90
2022/05/13 10:04:12;;;;;;;8.43;3.78;;;;;;;24.06;34.11;99203.41;5088140;28;20056;-91
2022/05/13 10:06:40;;;;;;;7.82;3.40;;;;;;;24.26;32.14;99218.19;5078877;28;20037;-90
2022/05/13 10:15:14;;;;;;;8.55;3.50;;;;;;;24.31;29.66;99204.25;5090514;27;20382;-93
2022/05/13 10:17:45;;;;;;;;;;;;;;;23.85;29.28;99218.59;5090940;28;20093;-92
2022/05/13 10:20:20;;;;;;;12.88;3.63;;;;;;;23.71;29.17;99203.31;5090770;28;19956;-91
2022/05/13 10:22:51;;;;;;;8.32;2.90;;;;;;;24.27;30.55;99195.47;5090909;28;20036;-89
2022/05/13 10:25:21;;;;;;;8.35;2.60;;;;;;;24.55;30.67;99191.53;5089909;28;20037;-90
2022/05/13 10:27:50;;;;;;;7.35;2.63;;;;;;;24.63;28.77;99181.88;5089879;28;20025;-93
2022/05/13 10:30:26;;;;;;;5.70;2.25;;;;;;;24.44;28.93;99182.41;5092119;28;20036;-90
2022/05/13 10:32:58;;;;;;;8.82;3.17;;;;;;;24.75;27.84;99184.50;5089578;28;20087;-90
2022/05/13 10:35:32;;;;;;;7.25;2.63;;;;;;;24.40;28.60;99154.63;5089989;28;20046;-92
2022/05/13 10:38:05;;;;;;;8.63;2.90;;;;;;;24.41;30.97;99178.09;5089062;28;20081;-90
2022/05/13 10:40:36;;;;;;;8.02;3.10;;;;;;;24.71;28.88;99184.88;5089856;28;20086;-92
2022/05/13 10:43:07;;;;;;;7.65;2.85;;;;;;;24.40;30.10;99181.81;5090874;28;21544;-89
2022/05/13 10:45:37;;;;;;;7.25;2.85;;;;;;;24.54;30.24;99175.31;5089062;28;20036;-93
2022/05/13 10:48:27;;;;;;;6.00;2.72;;;;;;;24.87;29.39;99168.19;5087696;28;20051;-91
2022/05/13 10:51:17;;;;;;;6.68;2.85;;;;;;;24.98;29.95;99158.19;5090274;28;20046;-92
2022/05/13 10:54:14;;;;;;;7.63;3.00;;;;;;;25.12;30.89;99162.50;5090727;28;20032;-92
2022/05/13 10:56:46;;;;;;;12.77;3.33;;;;;;;25.04;30.15;99162.25;5087563;28;20048;-91
2022/05/13 10:59:27;;;;;;;7.97;2.80;;;;;;;24.63;28.68;99149.25;5089904;28;20048;-92
2022/05/13 11:02:02;;;;;;;6.38;2.90;;;;;;;24.51;29.26;99140.22;5088999;28;20127;-91
2022/05/13 11:04:33;;;;;;;6.65;2.58;;;;;;;25.03;30.84;99168.72;5089263;28;20037;-92
2022/05/13 11:07:13;;;;;;;12.48;3.17;;;;;;;24.55;28.75;99158.03;5088921;28;20127;-93
2022/05/13 11:09:47;;;;;;;8.02;3.15;;;;;;;24.43;30.08;99154.38;5089262;28;20040;-90
2022/05/13 11:12:22;;;;;;;8.40;2.90;;;;;;;24.45;29.59;99146.09;5088579;28;20059;-89
2022/05/13 11:15:01;;;;;;;9.90;2.80;;;;;;;24.93;28.17;99163.13;5086956;28;20558;-91
2022/05/13 11:17:39;;;;;;;9.80;2.88;;;;;;;24.30;30.39;99151.75;5089208;28;20170;-91
2022/05/13 11:20:28;;;;;;;7.53;2.50;;;;;;;24.87;28.57;99146.44;5088847;28;20040;-92
2022/05/13 11:23:07;;;;;;;9.32;2.78;;;;;;;24.91;28.85;99147.91;5088208;28;20036;-93
2022/05/13 11:29:02;;;;;;;7.25;2.90;;;;;;;25.27;28.45;99155.00;5103159;27;20524;-90
2022/05/13 11:32:08;;;;;;;6.57;2.75;;;;;;;25.50;29.60;99127.72;5068532;28;20138;-91
2022/05/13 11:34:51;;;;;;;7.65;3.05;;;;;;;25.78;29.48;99142.63;5069813;28;20238;-90
2022/05/13 11:37:18;;;;;;;6.75;3.10;;;;;;;25.71;28.75;99128.66;5069501;28;20052;-91
2022/05/13 11:39:54;;;;;;;5.60;2.90;;;;;;;25.77;28.65;99127.28;5070439;28;20110;-90
2022/05/13 11:42:35;;;;;;;7.63;3.08;;;;;;;25.77;30.26;99130.84;5069135;28;20037;-91
2022/05/13 11:45:22;;;;;;;8.35;3.22;;;;;;;25.44;29.87;99117.31;5070678;28;20047;-93
2022/05/13 11:47:57;;;;;;;9.07;3.15;;;;;;;25.25;30.16;99109.84;5071674;28;20433;-92
2022/05/13 11:50:24;;;;;;;9.48;3.38;;;;;;;25.10;30.07;99130.97;5071533;28;20047;-93
2022/05/13 11:52:53;;;;;;;7.38;3.13;;;;;;;25.04;30.12;99107.84;5071405;28;20363;-92
2022/05/13 11:55:42;;;;;;;8.32;3.35;;;;;;;25.03;30.86;99119.72;5070521;28;20037;-93
2022/05/13 11:58:29;;;;;;;11.45;3.55;;;;;;;24.99;30.81;99118.25;5069965;28;20032;-91
2022/05/13 12:00:56;;;;;;;7.45;3.42;;;;;;;25.28;31.19;99109.56;5069513;28;20049;-89
2022/05/13 12:03:22;;;;;;;7.88;3.42;;;;;;;25.40;30.73;99078.63;5066605;28;20045;-90
2022/05/13 12:06:00;;;;;;;8.38;2.78;;;;;;;25.78;30.30;99090.84;5069294;28;20059;-90
2022/05/13 12:08:31;;;;;;;8.75;3.03;;;;;;;25.97;31.36;99085.59;5070086;28;20033;-91
2022/05/13 12:11:24;;;;;;;10.68;3.80;;;;;;;25.50;28.54;99084.16;5070258;28;20499;-92